Aeroporto :
LOGIN :

Iscrizione | Disclaimer

   EN    FR    IT 

 










Sommario :    VFR   VFR Marginale   IFR   IFR Intensivo   IFR Molto Intensivo
Visibilità : 
Base nubi : 
>= 8 km
>= 3000ft
5 / 8 km
1000 / 3000 ft
1500m / 5 km
500 / 1000 ft
800 / 1500m
200 / 500 ft
< 800m
< 200 ft
Simboli :   Temporali  Nebbia  Neve Forte  Precipitazioni Forti  Vento > 20 kt
SIGMETs :   Varie  Temporali  Ghiacco  Turbolenza  Onda orograficha  Ceneri Vulcaniche







- Altitudine del aeroporto : 364 ft
- Codice IATA : FRA


EDDF - Frankfurt Int.

ULTIMO METAR :
  • 200850Z 30009KT 240V010 9999 FEW014 16/12 Q1004 NOSIG

METARs OBSOLETI :
  • 200820Z 29010KT 260V320 9999 FEW012 16/12 Q1004 NOSIG
  • 200750Z 30012KT 270V330 9999 FEW010 15/11 Q1004 NOSIG
  • 200720Z 31012KT 270V340 9999 FEW010 14/11 Q1004 NOSIG
  • 200650Z 29009KT 9999 FEW010 14/11 Q1004 NOSIG
  • 200620Z 29009KT 9999 FEW010 14/12 Q1004 NOSIG

TAF TAF EDDF
Valido dal 20 a 06 ore il 21 a 12 ore UTC


200500Z 2006/2112 25004KT 9999 FEW020
BECMG 2008/2011 30010KT
TEMPO 2011/2020 SHRA BKN030CB
PROB40
TEMPO 2012/2019 36015G25KT 3000 +TSRAGR BKN010 BKN020CB
BECMG 2020/2022 BKN030
PROB40
TEMPO 2020/2106 35015G25KT 2500 +SHRA BKN009 BKN015CB
BECMG 2104/2106 4000 RA
Nessun NOTAM noto per questo aeroporto.



MetMap, La meteo Aeronautica in un colpo d'occhio ! - Copyright ORBIFLY Dicembre 2007 - Disclaimer

ORBIFLY MET'MAP TEAM :

Programmazione e sviluppo : Alexandra Zaïnal
Concezione e sviluppo : Baudouin d'Aumeries
Co-Programmazione e sviluppo : Marc-Olivier Méhu
Supporto tecnico e logistico : Manuel Goepfert
Aiuto per la traduzione : Arnaldo La Scala

Contatto : metmap@orbifly.com




FONTI E CREDITI :

   NOAA